Time;durP1;ratioP1;P1;durP2;ratioP2;P2;SDS_P1;SDS_P2;PMS_P1;PMS_P2;Temp;Humidity;BMP_temperature;BMP_pressure;BME280_temperature;BME280_humidity;BME280_pressure;Samples;Min_cycle;Max_cycle;Signal;HPM_P1;HPM_P2
2022/07/04 00:01:29;;;;;;;7.85;7.15;;;;;;;29.16;67.84;100549.81;5040801;28;65677;-35
2022/07/04 00:04:00;;;;;;;7.82;7.10;;;;;;;29.30;69.68;100573.00;5038051;28;69456;-36
2022/07/04 00:06:32;;;;;;;8.63;7.40;;;;;;;29.32;71.32;100565.50;5039786;28;66403;-38
2022/07/04 00:09:03;;;;;;;15.40;9.00;;;;;;;29.39;72.13;100569.00;5037578;28;69929;-36
2022/07/04 00:11:35;;;;;;;10.88;9.85;;;;;;;29.43;75.61;100579.38;5028085;28;65502;-37
2022/07/04 00:14:06;;;;;;;20.90;12.00;;;;;;;29.49;74.90;100587.41;5024948;28;70229;-37
2022/07/04 00:16:36;;;;;;;15.30;10.18;;;;;;;29.55;74.75;100585.72;5038945;28;65631;-36
2022/07/04 00:19:07;;;;;;;17.63;11.23;;;;;;;29.57;76.02;100589.03;5038151;28;70039;-38
2022/07/04 00:21:38;;;;;;;17.20;11.80;;;;;;;29.55;75.53;100585.72;5042397;28;67616;-36
2022/07/04 00:24:09;;;;;;;10.60;9.48;;;;;;;29.73;70.96;100588.53;5034442;28;70197;-35
2022/07/04 00:26:40;;;;;;;9.18;8.23;;;;;;;29.81;70.67;100587.41;5038050;28;66932;-35
2022/07/04 00:29:11;;;;;;;9.73;8.73;;;;;;;29.74;69.94;100563.16;5029618;28;68966;-37
2022/07/04 00:31:42;;;;;;;11.25;8.57;;;;;;;29.99;70.12;100592.06;5039668;28;68142;-37
2022/07/04 00:34:13;;;;;;;9.43;8.50;;;;;;;30.04;69.41;100589.53;5036671;28;69946;-36
2022/07/04 00:36:44;;;;;;;9.32;8.00;;;;;;;30.06;69.31;100582.00;5040412;28;66118;-36
2022/07/04 00:39:15;;;;;;;9.25;7.97;;;;;;;30.07;69.36;100572.88;5037464;28;70595;-37
2022/07/04 00:41:46;;;;;;;9.60;8.07;;;;;;;30.16;69.66;100590.47;5031423;28;66457;-38
2022/07/04 00:44:17;;;;;;;8.52;7.70;;;;;;;30.28;69.27;100606.81;5038732;28;69941;-37
2022/07/04 00:46:49;;;;;;;9.38;8.00;;;;;;;30.32;69.68;100613.44;5021250;28;66161;-35
2022/07/04 00:49:20;;;;;;;8.65;7.72;;;;;;;30.35;70.03;100617.59;5039677;28;69977;-36
2022/07/04 00:51:51;;;;;;;7.97;7.25;;;;;;;30.26;69.88;100590.00;5027245;28;65175;-36
2022/07/04 00:54:26;;;;;;;12.57;7.03;;;;;;;29.97;69.92;100529.25;5022182;28;69917;-36
2022/07/04 00:56:59;;;;;;;7.82;7.13;;;;;;;30.44;69.54;100605.41;5035363;28;66153;-36
2022/07/04 00:59:30;;;;;;;8.50;7.65;;;;;;;30.49;69.68;100602.88;5039551;28;70539;-35
2022/07/04 01:02:02;;;;;;;9.88;7.35;;;;;;;30.45;69.12;100591.69;5037935;28;64875;-36
2022/07/04 01:04:33;;;;;;;8.63;7.15;;;;;;;30.51;69.52;100600.78;5018986;28;70514;-36
2022/07/04 01:07:05;;;;;;;8.70;6.80;;;;;;;30.55;69.31;100604.69;5038629;28;66346;-36
2022/07/04 01:09:36;;;;;;;11.98;7.50;;;;;;;30.60;69.10;100609.41;5033225;28;70302;-36
2022/07/04 01:12:08;;;;;;;8.50;6.87;;;;;;;30.62;68.84;100613.56;5039141;28;66121;-36
2022/07/04 01:14:39;;;;;;;7.53;6.93;;;;;;;30.61;68.67;100606.47;5039363;28;70493;-35
2022/07/04 01:17:10;;;;;;;8.38;6.53;;;;;;;30.59;68.36;100605.91;5040852;28;66507;-35
2022/07/04 01:19:42;;;;;;;8.23;6.83;;;;;;;30.69;68.53;100622.41;5039800;28;69829;-35
2022/07/04 01:22:15;;;;;;;9.07;6.75;;;;;;;30.75;68.06;100617.16;5019441;28;65885;-36
2022/07/04 01:24:45;;;;;;;7.63;6.35;;;;;;;30.70;68.38;100604.28;5021827;28;70016;-36
2022/07/04 01:27:18;;;;;;;6.97;6.25;;;;;;;30.77;68.45;100623.19;5035353;28;65909;-36
2022/07/04 01:29:49;;;;;;;6.65;6.05;;;;;;;30.64;68.06;100594.38;5031223;28;70277;-35
2022/07/04 01:32:20;;;;;;;8.80;6.50;;;;;;;30.69;68.11;100600.75;5034095;28;66089;-36
2022/07/04 01:34:51;;;;;;;6.63;6.07;;;;;;;30.83;67.78;100627.72;5034965;28;69510;-35
2022/07/04 01:37:22;;;;;;;8.13;6.50;;;;;;;30.80;67.74;100620.06;5039797;28;65814;-35
2022/07/04 01:39:53;;;;;;;8.18;6.53;;;;;;;30.90;67.66;100631.19;5041459;28;69688;-35
2022/07/04 01:42:24;;;;;;;6.32;5.60;;;;;;;30.86;67.57;100627.28;5031978;28;66812;-36
2022/07/04 01:44:55;;;;;;;8.50;6.00;;;;;;;30.93;67.15;100641.56;5040336;28;69900;-35
2022/07/04 01:47:27;;;;;;;6.07;5.55;;;;;;;30.80;67.00;100620.06;5041843;28;65404;-35
2022/07/04 01:49:58;;;;;;;;;;;;;;;30.64;68.98;100643.91;5041784;28;69634;-35
2022/07/04 01:52:28;;;;;;;8.73;6.03;;;;;;;30.91;67.30;100635.56;5041900;28;66618;-34
2022/07/04 01:55:00;;;;;;;6.57;5.95;;;;;;;30.99;66.76;100646.09;5041948;28;71386;-35
2022/07/04 01:57:31;;;;;;;5.60;5.10;;;;;;;31.03;66.78;100641.03;5033380;28;66124;-35
2022/07/04 02:02:52;;;;;;;5.80;5.30;;;;;;;31.08;66.95;100639.28;5042059;28;65904;-35
2022/07/04 02:05:23;;;;;;;10.17;5.23;;;;;;;30.86;66.37;100605.59;5041118;28;70435;-36
2022/07/04 02:07:54;;;;;;;5.45;4.95;;;;;;;31.10;66.53;100642.59;5041604;28;65248;-35
2022/07/04 02:10:25;;;;;;;7.43;5.78;;;;;;;31.14;66.53;100649.22;5041089;28;69661;-35
2022/07/04 02:13:02;;;;;;;6.70;4.80;;;;;;;31.08;66.43;100633.06;5017002;28;66094;-36
2022/07/04 02:15:35;;;;;;;6.68;5.00;;;;;;;31.19;66.55;100640.41;5040540;28;69979;-36
2022/07/04 02:18:08;;;;;;;5.22;4.65;;;;;;;31.22;66.22;100641.84;5034810;28;65376;-36
2022/07/04 02:20:39;;;;;;;6.15;5.55;;;;;;;31.03;65.96;100609.34;5038628;28;69600;-36
2022/07/04 02:23:11;;;;;;;8.93;4.82;;;;;;;31.24;65.94;100635.13;5028050;28;67299;-35
2022/07/04 02:25:42;;;;;;;5.53;5.05;;;;;;;31.26;65.93;100634.88;5025722;28;70403;-35
2022/07/04 02:28:13;;;;;;;5.95;4.80;;;;;;;31.27;66.17;100631.16;5032076;28;66205;-35
2022/07/04 02:30:44;;;;;;;7.38;4.40;;;;;;;31.22;65.86;100617.44;5041111;28;70034;-37
2022/07/04 02:33:15;;;;;;;5.45;4.95;;;;;;;31.30;65.54;100628.78;5024552;28;66049;-35
2022/07/04 02:35:46;;;;;;;6.18;4.60;;;;;;;31.33;65.38;100632.94;5041406;28;69456;-36
2022/07/04 02:38:17;;;;;;;4.82;4.43;;;;;;;30.91;65.71;100563.25;5039306;28;66867;-36
2022/07/04 02:40:48;;;;;;;4.90;4.50;;;;;;;31.30;65.32;100625.25;5039230;28;69313;-36
2022/07/04 02:43:19;;;;;;;5.43;4.90;;;;;;;31.34;65.55;100627.28;5042526;28;67802;-36
2022/07/04 02:45:51;;;;;;;5.10;4.32;;;;;;;31.31;65.31;100626.91;5011821;28;69221;-35
2022/07/04 02:48:22;;;;;;;5.63;5.13;;;;;;;31.34;65.54;100629.16;5039364;28;65498;-36
2022/07/04 02:50:53;;;;;;;4.63;4.07;;;;;;;31.39;65.10;100632.03;5042000;28;68703;-37
2022/07/04 02:53:24;;;;;;;5.73;5.23;;;;;;;31.43;65.16;100635.97;5040931;28;66564;-36
2022/07/04 02:55:55;;;;;;;4.97;4.57;;;;;;;31.46;64.82;100638.22;5041130;28;69103;-36
2022/07/04 02:58:26;;;;;;;5.45;4.95;;;;;;;31.48;65.12;100637.97;5040865;28;66145;-36
2022/07/04 03:00:56;;;;;;;4.68;4.28;;;;;;;31.51;64.79;100637.50;5037571;28;69652;-36
2022/07/04 03:03:43;;;;;;;4.43;4.03;;;;;;;31.42;64.86;100615.31;5032586;28;65868;-36
2022/07/04 03:06:15;;;;;;;4.85;4.45;;;;;;;31.44;64.81;100615.09;5020182;28;69487;-36
2022/07/04 03:08:45;;;;;;;;;;;;;;;31.22;65.55;100639.13;5040384;28;66561;-35
2022/07/04 03:11:16;;;;;;;4.75;4.35;;;;;;;31.53;64.60;100625.38;5037609;28;69614;-36
2022/07/04 03:13:49;;;;;;;5.63;4.60;;;;;;;31.50;64.56;100625.84;5009694;28;43383;-35
2022/07/04 03:16:20;;;;;;;4.87;4.37;;;;;;;31.55;64.63;100634.09;5040712;28;69982;-35
2022/07/04 03:18:51;;;;;;;4.38;4.05;;;;;;;31.58;64.61;100635.53;5040629;28;66829;-36
2022/07/04 03:21:22;;;;;;;5.03;4.63;;;;;;;31.54;64.35;100623.50;5040000;28;70061;-35
2022/07/04 03:23:59;;;;;;;5.07;4.57;;;;;;;31.60;64.60;100623.41;5029863;28;65189;-36
2022/07/04 03:26:33;;;;;;;4.45;3.88;;;;;;;31.07;64.35;100536.59;5027218;28;70581;-36
2022/07/04 03:29:04;;;;;;;4.50;4.20;;;;;;;31.66;64.46;100612.69;5022053;28;65094;-35
2022/07/04 03:31:35;;;;;;;3.70;3.40;;;;;;;31.68;64.29;100610.53;5040906;28;69266;-36
2022/07/04 03:34:06;;;;;;;3.72;3.45;;;;;;;31.71;63.99;100620.97;5039695;28;66229;-35
2022/07/04 03:36:37;;;;;;;6.18;3.72;;;;;;;31.74;64.01;100615.88;5032444;28;69407;-35
2022/07/04 03:39:08;;;;;;;4.53;3.70;;;;;;;31.77;63.71;100606.47;5040288;28;65776;-36
2022/07/04 03:41:39;;;;;;;4.30;3.90;;;;;;;31.78;63.67;100595.38;5032066;28;69870;-35
2022/07/04 03:44:10;;;;;;;4.15;3.60;;;;;;;31.80;63.68;100595.16;5031567;28;65661;-35
2022/07/04 03:46:41;;;;;;;3.63;3.33;;;;;;;31.82;63.82;100596.56;5040532;28;69913;-35
2022/07/04 03:49:12;;;;;;;4.57;3.50;;;;;;;31.85;63.87;100600.69;5031446;28;67123;-37
2022/07/04 03:51:43;;;;;;;3.73;3.43;;;;;;;31.73;63.64;100575.44;5039600;28;69692;-35
2022/07/04 03:54:14;;;;;;;4.03;3.38;;;;;;;31.90;63.48;100597.28;5021918;28;66174;-35
2022/07/04 03:56:46;;;;;;;6.00;3.55;;;;;;;31.90;63.43;100592.69;5041113;28;69483;-35
2022/07/04 03:59:17;;;;;;;3.90;3.50;;;;;;;31.90;63.85;100592.69;5040303;28;65166;-35
2022/07/04 04:01:48;;;;;;;4.30;3.50;;;;;;;31.92;63.54;100590.59;5035044;28;69942;-35
2022/07/04 04:07:09;;;;;;;3.35;3.15;;;;;;;31.92;63.47;100584.34;5027957;28;69205;-35
2022/07/04 04:09:40;;;;;;;3.50;3.15;;;;;;;31.88;63.60;100573.09;5040691;28;65095;-36
2022/07/04 04:12:11;;;;;;;8.60;3.47;;;;;;;31.89;63.77;100579.34;5039498;28;69530;-35
2022/07/04 04:14:42;;;;;;;4.78;3.13;;;;;;;31.95;63.70;100581.97;5038225;28;65825;-35
2022/07/04 04:17:13;;;;;;;5.00;3.38;;;;;;;31.95;63.60;100578.44;5039890;28;70120;-35
2022/07/04 04:19:44;;;;;;;3.63;3.30;;;;;;;31.96;63.38;100580.94;5040977;28;65618;-36
2022/07/04 04:22:16;;;;;;;3.80;3.38;;;;;;;31.98;63.38;100584.25;5021970;28;70156;-35
2022/07/04 04:24:46;;;;;;;4.15;3.55;;;;;;;31.90;63.43;100553.88;5041330;28;66909;-35
2022/07/04 04:27:17;;;;;;;3.47;3.20;;;;;;;32.01;63.56;100572.91;5039204;28;71252;-35
2022/07/04 04:29:48;;;;;;;4.82;3.30;;;;;;;32.01;63.46;100575.63;5038862;28;66982;-35
2022/07/04 04:32:20;;;;;;;3.73;3.20;;;;;;;31.95;63.30;100568.41;5020511;28;69967;-35
2022/07/04 04:34:51;;;;;;;5.20;3.28;;;;;;;32.05;63.26;100573.25;5034437;28;65934;-35
2022/07/04 04:37:22;;;;;;;3.53;3.20;;;;;;;32.11;63.09;100566.06;5037669;28;69998;-36
2022/07/04 04:39:53;;;;;;;7.35;3.15;;;;;;;32.15;63.08;100559.09;5038106;28;66526;-36
2022/07/04 04:42:24;;;;;;;3.33;3.03;;;;;;;32.03;63.18;100535.50;5036430;28;69680;-35
2022/07/04 04:44:54;;;;;;;3.65;3.35;;;;;;;32.19;63.14;100546.72;5008664;28;65886;-36
2022/07/04 04:47:25;;;;;;;5.70;2.73;;;;;;;32.22;62.95;100557.09;5039913;28;69185;-35
2022/07/04 04:49:56;;;;;;;5.60;3.33;;;;;;;32.24;62.80;100554.97;5038919;28;65891;-35
2022/07/04 04:52:28;;;;;;;5.60;3.50;;;;;;;32.19;63.04;100531.25;5038894;28;69330;-35
2022/07/04 04:54:59;;;;;;;3.38;3.08;;;;;;;32.27;62.74;100549.06;5021723;28;66252;-35
2022/07/04 04:57:30;;;;;;;3.63;3.10;;;;;;;32.28;62.84;100545.28;5012851;28;70224;-35
2022/07/04 05:00:01;;;;;;;5.45;3.28;;;;;;;32.21;62.95;100522.88;5038900;28;65456;-35
2022/07/04 05:02:32;;;;;;;3.53;3.22;;;;;;;32.32;62.65;100532.06;5040366;28;70320;-35
2022/07/04 05:05:03;;;;;;;3.03;2.73;;;;;;;32.33;62.77;100525.56;5025054;28;65801;-35
2022/07/04 05:07:34;;;;;;;3.38;2.63;;;;;;;32.34;62.72;100528.03;5040760;28;68827;-36
2022/07/04 05:10:06;;;;;;;4.03;2.95;;;;;;;32.32;62.81;100524.75;5042178;28;66582;-36
2022/07/04 05:12:37;;;;;;;2.92;2.50;;;;;;;32.38;62.65;100534.66;5044807;28;69783;-36
2022/07/04 05:15:08;;;;;;;3.30;2.80;;;;;;;32.40;62.82;100527.09;5042947;28;65510;-36
2022/07/04 05:17:40;;;;;;;2.53;2.33;;;;;;;32.41;62.45;100517.88;5041979;28;70518;-36
2022/07/04 05:20:11;;;;;;;3.30;3.00;;;;;;;32.31;62.51;100485.09;5042760;28;65379;-36
2022/07/04 05:22:42;;;;;;;;;;;;;;;32.14;62.94;100505.91;5042955;28;70111;-34
2022/07/04 05:25:13;;;;;;;3.78;2.92;;;;;;;32.47;62.54;100508.81;5037190;28;66574;-35
2022/07/04 05:27:44;;;;;;;2.67;2.47;;;;;;;32.52;62.51;100507.28;5039378;28;70988;-35
2022/07/04 05:30:15;;;;;;;2.95;2.30;;;;;;;32.52;62.38;100518.97;5040451;28;66630;-35
2022/07/04 05:32:46;;;;;;;;;;;;;;;32.20;63.17;100510.34;5038167;28;69661;-35
2022/07/04 05:35:17;;;;;;;3.00;2.20;;;;;;;32.51;62.25;100505.59;5041902;28;65989;-35
2022/07/04 05:37:49;;;;;;;2.63;1.98;;;;;;;32.47;62.22;100497.94;5043230;28;70571;-35
2022/07/04 05:40:23;;;;;;;2.70;2.17;;;;;;;32.57;62.28;100504.63;5040325;28;67289;-34
2022/07/04 05:42:54;;;;;;;5.20;2.80;;;;;;;32.59;62.15;100495.19;5042918;28;70185;-39
2022/07/04 05:45:25;;;;;;;2.53;2.33;;;;;;;32.58;62.06;100487.31;5039455;28;65334;-35
2022/07/04 05:47:56;;;;;;;2.10;2.00;;;;;;;32.63;62.15;100476.53;5037634;28;70063;-35
2022/07/04 05:50:27;;;;;;;4.28;2.38;;;;;;;32.65;62.04;100486.09;5041360;28;66447;-36
2022/07/04 05:53:01;;;;;;;2.63;2.40;;;;;;;32.70;61.86;100471.78;5039252;28;70281;-36
2022/07/04 05:55:33;;;;;;;2.63;2.43;;;;;;;32.71;62.03;100462.56;5018876;28;66187;-37
2022/07/04 05:58:04;;;;;;;2.80;2.55;;;;;;;32.70;61.85;100450.06;5042661;28;69924;-36
2022/07/04 06:00:35;;;;;;;2.57;1.70;;;;;;;32.77;61.89;100461.59;5041456;28;66076;-36
2022/07/04 06:03:06;;;;;;;2.67;2.27;;;;;;;32.71;61.71;100446.28;5040500;28;70988;-35
2022/07/04 06:05:38;;;;;;;4.30;2.63;;;;;;;32.84;61.63;100445.97;5041937;28;65387;-34
2022/07/04 06:08:09;;;;;;;2.30;1.90;;;;;;;32.86;61.79;100441.13;5039662;28;69085;-36
2022/07/04 06:10:40;;;;;;;2.50;2.20;;;;;;;32.72;61.79;100427.00;5042319;28;67522;-36
2022/07/04 06:13:11;;;;;;;5.97;2.50;;;;;;;32.89;62.01;100466.97;5027940;28;69471;-35
2022/07/04 06:15:42;;;;;;;6.27;2.50;;;;;;;32.91;61.56;100456.69;5024760;28;66628;-36
2022/07/04 06:18:13;;;;;;;2.58;1.95;;;;;;;32.93;61.33;100466.25;5040883;28;68535;-35
2022/07/04 06:20:44;;;;;;;2.53;2.15;;;;;;;32.94;61.37;100475.22;5015122;28;66202;-35
2022/07/04 06:23:15;;;;;;;5.45;2.20;;;;;;;32.98;61.25;100472.81;5047720;28;70159;-35
2022/07/04 06:25:47;;;;;;;3.20;1.95;;;;;;;32.98;61.48;100470.13;5051374;28;66621;-36
2022/07/04 06:28:18;;;;;;;2.43;2.13;;;;;;;32.98;61.44;100472.81;5024847;28;69120;-35
2022/07/04 06:31:08;;;;;;;5.03;2.15;;;;;;;33.01;61.34;100478.63;5042946;28;65431;-36
2022/07/04 06:36:29;;;;;;;3.53;2.53;;;;;;;33.00;61.39;100465.28;5028704;28;65596;-36
2022/07/04 06:39:00;;;;;;;3.70;2.40;;;;;;;33.04;61.33;100461.00;5038875;28;69164;-36
2022/07/04 06:41:31;;;;;;;7.10;2.78;;;;;;;33.01;61.71;100456.88;5031191;28;66041;-36
2022/07/04 06:44:02;;;;;;;4.30;2.40;;;;;;;33.04;61.67;100450.13;5041062;28;69870;-35
2022/07/04 06:46:36;;;;;;;2.97;2.33;;;;;;;33.03;61.79;100445.78;5041514;28;66405;-35
2022/07/04 06:49:07;;;;;;;2.75;2.50;;;;;;;33.04;61.84;100439.28;5041382;28;70184;-35
2022/07/04 06:51:38;;;;;;;2.35;2.15;;;;;;;33.03;61.94;100437.63;5041328;28;66478;-36
2022/07/04 06:54:09;;;;;;;4.53;2.50;;;;;;;33.03;61.91;100433.00;5040529;28;70169;-35
2022/07/04 06:56:40;;;;;;;6.50;2.53;;;;;;;33.04;61.78;100428.41;5041889;28;65692;-36
2022/07/04 06:59:11;;;;;;;3.33;2.40;;;;;;;33.03;62.02;100421.31;5033749;28;69513;-35
2022/07/04 07:01:42;;;;;;;3.23;2.53;;;;;;;33.06;61.94;100416.22;5045463;28;67633;-36
2022/07/04 07:04:13;;;;;;;3.20;2.63;;;;;;;33.03;62.15;100394.97;5045040;28;69865;-35
2022/07/04 07:06:44;;;;;;;4.07;2.60;;;;;;;33.06;61.72;100393.66;5048484;28;64945;-37
2022/07/04 07:09:15;;;;;;;4.13;2.65;;;;;;;33.10;61.79;100400.25;5032013;28;69250;-36
2022/07/04 07:11:46;;;;;;;5.17;3.20;;;;;;;33.11;61.93;100393.75;5041494;28;66356;-36
2022/07/04 07:14:17;;;;;;;7.50;2.55;;;;;;;33.08;61.78;100386.91;5039725;28;69995;-34
2022/07/04 07:16:48;;;;;;;3.78;2.53;;;;;;;33.06;61.48;100382.78;5041146;28;65622;-35
2022/07/04 07:19:18;;;;;;;3.63;2.28;;;;;;;33.16;61.59;100382.97;5040907;28;69986;-35
2022/07/04 07:21:49;;;;;;;7.07;2.25;;;;;;;33.16;61.43;100382.97;5036324;28;65342;-35
2022/07/04 07:24:20;;;;;;;3.97;2.08;;;;;;;33.17;61.69;100384.59;5035470;28;69930;-35
2022/07/04 07:26:52;;;;;;;2.50;2.05;;;;;;;33.17;61.33;100379.16;5050955;28;66050;-35
2022/07/04 07:29:23;;;;;;;2.33;2.10;;;;;;;33.20;61.34;100388.72;5038653;28;70588;-36
2022/07/04 07:31:54;;;;;;;2.30;2.07;;;;;;;33.13;61.03;100376.13;5041630;28;65849;-36
2022/07/04 07:34:25;;;;;;;6.17;2.47;;;;;;;33.21;61.07;100388.47;5023154;28;70899;-36
2022/07/04 07:36:56;;;;;;;2.47;2.27;;;;;;;33.21;61.37;100374.91;5040423;28;67324;-36
2022/07/04 07:39:28;;;;;;;3.93;2.33;;;;;;;33.24;60.95;100379.84;5040252;28;70192;-34
2022/07/04 07:41:58;;;;;;;2.28;2.08;;;;;;;33.23;60.81;100367.28;5041068;28;65677;-35
2022/07/04 07:44:29;;;;;;;2.97;2.30;;;;;;;33.24;60.93;100362.66;5038856;28;70571;-35
2022/07/04 07:47:00;;;;;;;2.80;1.83;;;;;;;33.26;60.80;100350.47;5035279;28;66135;-35
2022/07/04 07:49:31;;;;;;;2.95;2.33;;;;;;;33.11;60.46;100331.25;5039409;28;70066;-38
2022/07/04 07:52:03;;;;;;;3.80;2.27;;;;;;;33.25;60.77;100354.28;5041435;28;65119;-35
2022/07/04 07:54:34;;;;;;;4.10;1.97;;;;;;;33.25;60.96;100365.16;5040115;28;71708;-35
2022/07/04 07:57:25;;;;;;;4.00;1.77;;;;;;;33.16;60.48;100350.34;5034317;28;66727;-36
2022/07/04 07:59:56;;;;;;;2.53;1.65;;;;;;;33.29;60.87;100360.03;5038818;28;69506;-35
2022/07/04 08:05:16;;;;;;;3.42;2.00;;;;;;;33.27;60.73;100360.31;5040108;28;68744;-35
2022/07/04 08:07:47;;;;;;;5.38;2.58;;;;;;;33.29;60.55;100355.44;5039374;28;65935;-35
2022/07/04 08:10:18;;;;;;;4.65;1.77;;;;;;;33.28;60.62;100348.34;5030353;28;70302;-35
2022/07/04 08:12:49;;;;;;;3.63;1.65;;;;;;;33.25;60.48;100348.84;5035210;28;65777;-35
2022/07/04 08:15:19;;;;;;;3.13;2.00;;;;;;;33.25;60.51;100348.84;5030452;28;71138;-36
2022/07/04 08:17:53;;;;;;;4.60;2.03;;;;;;;33.29;60.63;100350.00;5040715;28;66302;-35
2022/07/04 08:20:24;;;;;;;5.72;1.70;;;;;;;33.29;60.55;100360.88;5039985;28;70246;-35
2022/07/04 08:22:55;;;;;;;2.97;1.90;;;;;;;33.26;60.56;100366.78;5038730;28;65772;-36
2022/07/04 08:25:25;;;;;;;1.73;1.63;;;;;;;33.26;60.47;100355.91;5038436;28;69388;-35
2022/07/04 08:27:56;;;;;;;2.83;1.70;;;;;;;33.29;60.60;100373.63;5040601;28;65601;-35
2022/07/04 08:30:28;;;;;;;5.60;1.98;;;;;;;33.30;60.47;100373.41;5040092;28;70417;-36
2022/07/04 08:32:59;;;;;;;2.25;1.50;;;;;;;33.18;60.56;100359.06;5035968;28;65737;-35
2022/07/04 08:35:34;;;;;;;2.67;1.67;;;;;;;33.20;60.57;100359.63;5037806;28;70479;-36
2022/07/04 08:38:05;;;;;;;2.10;1.92;;;;;;;33.29;60.40;100371.75;5027076;28;67168;-35
2022/07/04 08:40:36;;;;;;;3.83;1.87;;;;;;;33.25;60.31;100376.03;5040148;28;71561;-35
2022/07/04 08:43:06;;;;;;;2.45;1.70;;;;;;;33.28;60.28;100378.25;5038691;28;65778;-36
2022/07/04 08:45:38;;;;;;;4.77;2.03;;;;;;;33.29;60.50;100371.75;5039005;28;71837;-35
2022/07/04 08:48:31;;;;;;;4.03;1.67;;;;;;;32.67;60.30;100257.72;5037803;28;65650;-37
2022/07/04 08:51:32;;;;;;;2.50;1.58;;;;;;;33.19;60.45;100338.16;5039730;28;70660;-35
2022/07/04 08:58:25;;;;;;;2.35;1.90;;;;;;;33.25;60.24;100342.59;5042598;28;65520;-36
2022/07/04 08:59:45;;;;;;;2.70;1.73;;;;;;;33.17;60.36;100335.69;5033521;28;65091;-37
2022/07/04 09:02:19;;;;;;;2.17;1.80;;;;;;;32.70;60.51;100259.94;5037654;28;70181;-36
2022/07/04 09:04:50;;;;;;;6.68;1.50;;;;;;;33.24;60.60;100341.78;5040232;28;65473;-37
2022/07/04 09:07:22;;;;;;;3.95;2.00;;;;;;;33.24;60.73;100340.94;5038481;28;69020;-35
2022/07/04 09:09:54;;;;;;;2.63;2.20;;;;;;;33.19;60.56;100327.28;5039504;28;65876;-35
2022/07/04 09:12:26;;;;;;;3.22;2.08;;;;;;;33.22;60.41;100324.88;5040324;28;69940;-35
2022/07/04 09:15:11;;;;;;;2.55;2.35;;;;;;;33.22;60.71;100330.31;5010957;28;65886;-35
2022/07/04 09:17:42;;;;;;;5.13;1.98;;;;;;;33.09;60.91;100314.34;5039072;28;68824;-36
2022/07/04 09:20:21;;;;;;;2.58;1.90;;;;;;;32.85;60.51;100273.78;5033025;28;65982;-37
2022/07/04 09:22:54;;;;;;;4.72;2.00;;;;;;;33.22;60.76;100330.31;5039579;28;70622;-36
2022/07/04 09:25:26;;;;;;;2.30;1.85;;;;;;;33.21;60.86;100325.97;5039661;28;66216;-36
2022/07/04 09:27:57;;;;;;;4.25;2.08;;;;;;;33.20;61.00;100334.34;5038190;28;69384;-36
2022/07/04 09:30:28;;;;;;;3.03;1.90;;;;;;;33.19;60.82;100330.81;5039227;28;67872;-35
2022/07/04 09:33:04;;;;;;;2.20;2.00;;;;;;;33.16;61.30;100334.03;5039165;28;69323;-35
2022/07/04 09:35:36;;;;;;;2.88;2.17;;;;;;;33.19;60.81;100349.84;5020867;28;65830;-35
2022/07/04 09:38:14;;;;;;;4.45;1.83;;;;;;;32.60;61.03;100259.81;5037969;28;70297;-35
2022/07/04 09:44:00;;;;;;;2.72;2.25;;;;;;;33.02;61.33;100352.59;5032735;28;69260;-36
2022/07/04 09:46:31;;;;;;;3.60;2.25;;;;;;;33.16;61.30;100344.91;5038018;28;66215;-36
2022/07/04 09:49:02;;;;;;;2.53;2.30;;;;;;;33.13;61.31;100350.84;5039570;28;69821;-35
2022/07/04 09:51:41;;;;;;;2.88;2.55;;;;;;;33.16;61.31;100350.34;5040894;28;65664;-36
2022/07/04 09:54:14;;;;;;;2.75;2.22;;;;;;;32.22;61.36;100204.31;5037452;28;69971;-35
2022/07/04 09:56:48;;;;;;;2.88;2.40;;;;;;;33.16;61.26;100361.22;5041762;28;65675;-35
2022/07/04 09:59:19;;;;;;;3.30;2.40;;;;;;;33.06;61.24;100355.63;5031389;28;70044;-40
2022/07/04 10:01:50;;;;;;;;;;;;;;;32.80;62.35;100368.75;5044537;28;66060;-35
2022/07/04 10:04:23;;;;;;;3.47;2.63;;;;;;;33.10;61.58;100373.09;5041432;28;69372;-37
2022/07/04 10:06:54;;;;;;;7.05;2.53;;;;;;;33.11;61.76;100380.16;5041869;28;66075;-35
2022/07/04 10:09:29;;;;;;;2.92;2.65;;;;;;;33.09;61.44;100393.16;5040751;28;69201;-35
2022/07/04 10:12:01;;;;;;;3.42;3.08;;;;;;;33.10;61.70;100389.41;5036993;28;67014;-36
2022/07/04 10:14:32;;;;;;;5.95;2.30;;;;;;;33.10;61.53;100389.41;5022031;28;70548;-36
2022/07/04 10:17:04;;;;;;;5.10;2.70;;;;;;;33.01;61.63;100379.97;5029817;28;65250;-36
2022/07/04 10:19:35;;;;;;;;;;;;;;;32.75;62.73;100378.72;5040744;28;70294;-36
2022/07/04 10:22:09;;;;;;;7.03;2.72;;;;;;;32.57;61.69;100304.56;5040163;28;66262;-35
2022/07/04 10:24:40;;;;;;;3.28;2.95;;;;;;;32.94;61.76;100369.25;5032972;28;69065;-36
2022/07/04 10:27:12;;;;;;;6.80;3.20;;;;;;;32.88;63.63;100386.56;5040104;28;66155;-37
2022/07/04 10:29:43;;;;;;;7.22;3.78;;;;;;;32.75;64.34;100392.28;5022016;28;69782;-36
2022/07/04 10:32:15;;;;;;;5.07;3.30;;;;;;;32.60;65.35;100374.66;5040106;28;66443;-37
2022/07/04 10:34:45;;;;;;;6.22;3.40;;;;;;;32.54;65.67;100396.53;5039165;28;69305;-35
2022/07/04 10:37:17;;;;;;;10.45;3.40;;;;;;;32.53;66.83;100411.16;5020660;28;66485;-37
2022/07/04 10:39:48;;;;;;;7.18;3.80;;;;;;;32.44;67.30;100403.38;5035289;28;69852;-36
2022/07/04 10:42:29;;;;;;;10.13;3.63;;;;;;;32.40;67.58;100388.66;5033498;28;65717;-36
2022/07/04 10:45:03;;;;;;;14.85;4.22;;;;;;;32.40;67.92;100385.09;5036987;28;70019;-37
2022/07/04 10:47:34;;;;;;;20.00;4.28;;;;;;;32.33;67.96;100387.97;5017481;28;66284;-36
2022/07/04 10:50:05;;;;;;;12.05;4.38;;;;;;;32.30;67.91;100393.88;5037643;28;70191;-36
2022/07/04 10:52:36;;;;;;;4.40;3.80;;;;;;;31.80;67.92;100315.81;5035013;28;63854;-37
2022/07/04 10:55:13;;;;;;;4.35;3.75;;;;;;;32.27;68.54;100394.38;5034058;28;69911;-36
2022/07/04 10:57:44;;;;;;;7.50;3.88;;;;;;;32.23;69.18;100396.75;5036768;28;65427;-38
2022/07/04 11:00:15;;;;;;;6.47;5.10;;;;;;;32.18;69.15;100398.50;5038990;28;68860;-38
2022/07/04 11:02:46;;;;;;;14.05;6.25;;;;;;;32.07;68.86;100391.22;5039116;28;66244;-36
2022/07/04 11:05:32;;;;;;;15.20;7.50;;;;;;;31.40;68.67;100300.34;5038504;28;69437;-39
2022/07/04 11:08:06;;;;;;;15.18;7.03;;;;;;;31.98;69.06;100393.50;5038937;28;65823;-37
2022/07/04 11:10:38;;;;;;;16.58;6.90;;;;;;;31.98;69.31;100399.78;5038340;28;69817;-37
2022/07/04 11:13:15;;;;;;;16.08;6.93;;;;;;;32.01;69.23;100393.88;5036996;28;65980;-36
2022/07/04 11:15:46;;;;;;;21.67;6.82;;;;;;;32.16;68.21;100400.66;5040988;28;70673;-41
2022/07/04 11:18:19;;;;;;;17.90;7.22;;;;;;;32.25;68.05;100399.19;5036858;28;65720;-36
2022/07/04 11:20:51;;;;;;;12.05;5.72;;;;;;;32.31;67.79;100403.66;5035040;28;68950;-35
2022/07/04 11:23:23;;;;;;;8.23;5.85;;;;;;;32.21;67.30;100379.88;5016997;28;65822;-36
2022/07/04 11:25:56;;;;;;;14.85;7.03;;;;;;;32.43;67.38;100392.75;5040178;28;69767;-36
2022/07/04 11:28:36;;;;;;;13.32;6.35;;;;;;;32.49;66.99;100410.84;5038804;28;66310;-34
2022/07/04 11:31:14;;;;;;;7.20;6.38;;;;;;;32.52;66.64;100409.53;5035871;28;70237;-37
2022/07/04 11:33:45;;;;;;;;;;;;;;;32.23;68.10;100412.19;5039141;28;66514;-35
2022/07/04 11:36:20;;;;;;;7.28;6.43;;;;;;;32.57;66.82;100413.16;5018259;28;68303;-36
2022/07/04 11:38:55;;;;;;;11.50;6.45;;;;;;;32.63;66.77;100424.94;5035959;28;65277;-38
2022/07/04 11:45:07;;;;;;;8.02;7.32;;;;;;;32.31;69.67;100447.09;5016626;28;65967;-36
2022/07/04 11:47:42;;;;;;;9.50;8.25;;;;;;;32.33;69.95;100444.97;5034724;28;69979;-36
2022/07/04 11:50:18;;;;;;;9.98;8.35;;;;;;;31.67;70.79;100354.03;5016635;28;65695;-35
2022/07/04 11:52:55;;;;;;;9.00;8.10;;;;;;;32.17;71.55;100451.97;5036466;28;69194;-34
2022/07/04 11:55:58;;;;;;;10.60;8.43;;;;;;;32.11;71.98;100462.97;5037319;28;66582;-35
2022/07/04 11:58:42;;;;;;;10.25;8.80;;;;;;;31.02;72.04;100288.06;5020251;28;70776;-36
2022/07/04 12:01:26;;;;;;;8.82;8.13;;;;;;;32.02;72.39;100443.50;5031134;28;66468;-35
2022/07/04 12:04:12;;;;;;;9.27;8.27;;;;;;;32.04;72.50;100461.19;5037372;28;69831;-35
2022/07/04 12:06:45;;;;;;;9.85;9.00;;;;;;;32.11;72.27;100471.09;5037890;28;66682;-35
2022/07/04 12:09:16;;;;;;;8.95;8.05;;;;;;;32.08;72.87;100458.81;5020437;28;69770;-34
2022/07/04 12:11:58;;;;;;;9.23;8.37;;;;;;;32.01;72.74;100453.53;5037591;28;64953;-36